sensor_id;sensor_type;location;lat;lon;timestamp;P1;durP1;ratioP1;P2;durP2;ratioP2
18893;SDS011;9579;49.488;8.226;2022-10-23T07:43:17;3.87;;;3.43;;
18893;SDS011;9579;49.488;8.226;2022-10-23T07:46:05;3.97;;;3.30;;
18893;SDS011;9579;49.488;8.226;2022-10-23T07:48:54;5.03;;;3.50;;
18893;SDS011;9579;49.488;8.226;2022-10-23T07:51:41;3.97;;;3.40;;
18893;SDS011;9579;49.488;8.226;2022-10-23T07:54:28;6.67;;;3.47;;
18893;SDS011;9579;49.488;8.226;2022-10-23T07:57:15;5.37;;;3.27;;
18893;SDS011;9579;49.488;8.226;2022-10-23T08:00:05;6.20;;;3.07;;
18893;SDS011;9579;49.488;8.226;2022-10-23T08:02:53;5.03;;;3.33;;
18893;SDS011;9579;49.488;8.226;2022-10-23T08:05:40;4.53;;;3.50;;
18893;SDS011;9579;49.488;8.226;2022-10-23T08:08:27;4.40;;;3.10;;
18893;SDS011;9579;49.488;8.226;2022-10-23T08:11:15;5.53;;;3.37;;
18893;SDS011;9579;49.488;8.226;2022-10-23T08:14:09;3.45;;;3.03;;
18893;SDS011;9579;49.488;8.226;2022-10-23T08:16:57;3.35;;;2.80;;
18893;SDS011;9579;49.488;8.226;2022-10-23T08:19:45;3.20;;;2.90;;
18893;SDS011;9579;49.488;8.226;2022-10-23T08:22:32;3.40;;;3.10;;
18893;SDS011;9579;49.488;8.226;2022-10-23T08:25:21;5.40;;;3.17;;
18893;SDS011;9579;49.488;8.226;2022-10-23T08:28:08;4.80;;;3.42;;
18893;SDS011;9579;49.488;8.226;2022-10-23T08:31:05;3.78;;;2.80;;
18893;SDS011;9579;49.488;8.226;2022-10-23T08:34:02;3.25;;;2.83;;
18893;SDS011;9579;49.488;8.226;2022-10-23T09:01:22;3.65;;;2.65;;
18893;SDS011;9579;49.488;8.226;2022-10-23T09:05:24;4.53;;;2.90;;
18893;SDS011;9579;49.488;8.226;2022-10-23T09:11:35;4.10;;;2.75;;
18893;SDS011;9579;49.488;8.226;2022-10-23T09:15:03;4.10;;;3.10;;
18893;SDS011;9579;49.488;8.226;2022-10-23T09:18:16;2.78;;;2.47;;
18893;SDS011;9579;49.488;8.226;2022-10-23T09:21:24;4.68;;;3.05;;
18893;SDS011;9579;49.488;8.226;2022-10-23T09:24:28;3.15;;;2.72;;
18893;SDS011;9579;49.488;8.226;2022-10-23T09:33:53;4.78;;;2.88;;
18893;SDS011;9579;49.488;8.226;2022-10-23T09:36:47;3.33;;;2.60;;
18893;SDS011;9579;49.488;8.226;2022-10-23T09:39:41;6.55;;;3.10;;
18893;SDS011;9579;49.488;8.226;2022-10-23T09:45:55;6.00;;;3.78;;
18893;SDS011;9579;49.488;8.226;2022-10-23T09:59:22;6.00;;;3.70;;
18893;SDS011;9579;49.488;8.226;2022-10-23T10:02:18;5.28;;;3.30;;
18893;SDS011;9579;49.488;8.226;2022-10-23T10:05:27;5.68;;;3.90;;
18893;SDS011;9579;49.488;8.226;2022-10-23T10:08:20;5.05;;;3.88;;
18893;SDS011;9579;49.488;8.226;2022-10-23T10:11:32;21.45;;;14.20;;
18893;SDS011;9579;49.488;8.226;2022-10-23T10:18:11;4.82;;;3.60;;
18893;SDS011;9579;49.488;8.226;2022-10-23T10:22:27;6.10;;;2.90;;
18893;SDS011;9579;49.488;8.226;2022-10-23T10:25:09;3.92;;;3.22;;
18893;SDS011;9579;49.488;8.226;2022-10-23T10:42:10;5.30;;;3.33;;
18893;SDS011;9579;49.488;8.226;2022-10-23T10:46:08;4.38;;;2.65;;
18893;SDS011;9579;49.488;8.226;2022-10-23T10:57:28;2.70;;;2.40;;
18893;SDS011;9579;49.488;8.226;2022-10-23T11:00:19;2.58;;;2.38;;
18893;SDS011;9579;49.488;8.226;2022-10-23T11:03:10;4.00;;;2.63;;
18893;SDS011;9579;49.488;8.226;2022-10-23T11:06:08;5.80;;;2.53;;
18893;SDS011;9579;49.488;8.226;2022-10-23T11:08:59;2.40;;;2.20;;
18893;SDS011;9579;49.488;8.226;2022-10-23T11:11:50;3.55;;;2.67;;
18893;SDS011;9579;49.488;8.226;2022-10-23T11:14:39;3.55;;;2.67;;
18893;SDS011;9579;49.488;8.226;2022-10-23T11:17:29;4.57;;;2.38;;
18893;SDS011;9579;49.488;8.226;2022-10-23T11:20:28;2.95;;;2.72;;
18893;SDS011;9579;49.488;8.226;2022-10-23T11:23:36;2.50;;;2.15;;
18893;SDS011;9579;49.488;8.226;2022-10-23T11:27:08;2.85;;;2.20;;
18893;SDS011;9579;49.488;8.226;2022-10-23T11:30:18;5.90;;;2.30;;
18893;SDS011;9579;49.488;8.226;2022-10-23T11:33:19;2.75;;;2.17;;
18893;SDS011;9579;49.488;8.226;2022-10-23T11:36:39;3.75;;;2.20;;
18893;SDS011;9579;49.488;8.226;2022-10-23T11:39:28;4.88;;;2.72;;
18893;SDS011;9579;49.488;8.226;2022-10-23T11:42:26;2.33;;;2.10;;
18893;SDS011;9579;49.488;8.226;2022-10-23T11:45:28;4.38;;;2.25;;
18893;SDS011;9579;49.488;8.226;2022-10-23T11:48:19;2.50;;;1.92;;
18893;SDS011;9579;49.488;8.226;2022-10-23T11:54:20;2.30;;;2.10;;
18893;SDS011;9579;49.488;8.226;2022-10-23T11:57:11;2.20;;;2.00;;
18893;SDS011;9579;49.488;8.226;2022-10-23T12:00:00;3.13;;;2.00;;
18893;SDS011;9579;49.488;8.226;2022-10-23T12:02:50;3.67;;;2.08;;
18893;SDS011;9579;49.488;8.226;2022-10-23T12:05:39;3.38;;;2.10;;
18893;SDS011;9579;49.488;8.226;2022-10-23T12:08:30;3.53;;;2.20;;
18893;SDS011;9579;49.488;8.226;2022-10-23T12:11:24;2.95;;;2.00;;
18893;SDS011;9579;49.488;8.226;2022-10-23T12:14:29;2.10;;;1.90;;
18893;SDS011;9579;49.488;8.226;2022-10-23T12:17:28;3.88;;;2.08;;
18893;SDS011;9579;49.488;8.226;2022-10-23T12:20:28;2.50;;;1.98;;
18893;SDS011;9579;49.488;8.226;2022-10-23T12:23:34;2.45;;;2.08;;
18893;SDS011;9579;49.488;8.226;2022-10-23T12:26:37;2.20;;;2.00;;
18893;SDS011;9579;49.488;8.226;2022-10-23T12:29:37;2.15;;;1.92;;
18893;SDS011;9579;49.488;8.226;2022-10-23T12:36:01;2.03;;;1.85;;
18893;SDS011;9579;49.488;8.226;2022-10-23T12:42:13;3.13;;;2.17;;
18893;SDS011;9579;49.488;8.226;2022-10-23T12:45:13;2.67;;;1.80;;
18893;SDS011;9579;49.488;8.226;2022-10-23T12:48:03;2.50;;;1.90;;
18893;SDS011;9579;49.488;8.226;2022-10-23T12:50:52;2.60;;;2.03;;
18893;SDS011;9579;49.488;8.226;2022-10-23T12:53:41;2.97;;;2.05;;
18893;SDS011;9579;49.488;8.226;2022-10-23T12:56:34;3.70;;;2.20;;
18893;SDS011;9579;49.488;8.226;2022-10-23T12:59:23;3.58;;;2.20;;
18893;SDS011;9579;49.488;8.226;2022-10-23T13:02:16;4.88;;;2.10;;
18893;SDS011;9579;49.488;8.226;2022-10-23T13:05:10;4.20;;;2.05;;
18893;SDS011;9579;49.488;8.226;2022-10-23T13:08:00;3.80;;;2.20;;
18893;SDS011;9579;49.488;8.226;2022-10-23T13:10:50;2.25;;;2.05;;
18893;SDS011;9579;49.488;8.226;2022-10-23T13:13:37;2.25;;;2.05;;
18893;SDS011;9579;49.488;8.226;2022-10-23T13:16:27;2.88;;;2.20;;
18893;SDS011;9579;49.488;8.226;2022-10-23T13:19:23;3.25;;;2.22;;
18893;SDS011;9579;49.488;8.226;2022-10-23T13:22:14;3.88;;;2.10;;
18893;SDS011;9579;49.488;8.226;2022-10-23T13:25:18;3.72;;;2.17;;
18893;SDS011;9579;49.488;8.226;2022-10-23T13:28:20;3.00;;;2.00;;
18893;SDS011;9579;49.488;8.226;2022-10-23T13:31:23;2.20;;;2.08;;
18893;SDS011;9579;49.488;8.226;2022-10-23T13:34:16;2.88;;;2.10;;
18893;SDS011;9579;49.488;8.226;2022-10-23T13:37:20;2.83;;;1.85;;
18893;SDS011;9579;49.488;8.226;2022-10-23T13:40:19;2.88;;;2.10;;
18893;SDS011;9579;49.488;8.226;2022-10-23T13:43:11;2.10;;;2.00;;
18893;SDS011;9579;49.488;8.226;2022-10-23T13:46:03;4.65;;;2.30;;
18893;SDS011;9579;49.488;8.226;2022-10-23T13:48:50;3.13;;;2.30;;
18893;SDS011;9579;49.488;8.226;2022-10-23T13:51:39;4.03;;;2.40;;
18893;SDS011;9579;49.488;8.226;2022-10-23T13:54:28;2.85;;;1.90;;
18893;SDS011;9579;49.488;8.226;2022-10-23T13:57:15;2.15;;;2.03;;
18893;SDS011;9579;49.488;8.226;2022-10-23T14:00:05;2.10;;;1.90;;
18893;SDS011;9579;49.488;8.226;2022-10-23T14:02:53;2.75;;;2.05;;
18893;SDS011;9579;49.488;8.226;2022-10-23T14:05:40;3.55;;;2.10;;
18893;SDS011;9579;49.488;8.226;2022-10-23T14:08:27;4.32;;;2.28;;
18893;SDS011;9579;49.488;8.226;2022-10-23T14:11:15;2.10;;;2.00;;
18893;SDS011;9579;49.488;8.226;2022-10-23T14:14:03;2.10;;;1.90;;
18893;SDS011;9579;49.488;8.226;2022-10-23T14:16:51;2.30;;;2.10;;
18893;SDS011;9579;49.488;8.226;2022-10-23T14:19:39;2.63;;;2.20;;
18893;SDS011;9579;49.488;8.226;2022-10-23T14:22:26;2.53;;;2.30;;
18893;SDS011;9579;49.488;8.226;2022-10-23T14:25:13;1.90;;;1.80;;
18893;SDS011;9579;49.488;8.226;2022-10-23T14:28:00;4.00;;;2.10;;
18893;SDS011;9579;49.488;8.226;2022-10-23T14:30:47;2.40;;;1.92;;
18893;SDS011;9579;49.488;8.226;2022-10-23T14:33:36;4.78;;;2.50;;
18893;SDS011;9579;49.488;8.226;2022-10-23T14:36:23;2.40;;;2.17;;
18893;SDS011;9579;49.488;8.226;2022-10-23T14:39:10;4.75;;;2.50;;
18893;SDS011;9579;49.488;8.226;2022-10-23T14:41:57;2.38;;;2.05;;
18893;SDS011;9579;49.488;8.226;2022-10-23T14:44:44;3.38;;;2.28;;
18893;SDS011;9579;49.488;8.226;2022-10-23T14:47:33;2.47;;;2.28;;
18893;SDS011;9579;49.488;8.226;2022-10-23T14:50:22;2.35;;;2.20;;
18893;SDS011;9579;49.488;8.226;2022-10-23T14:53:09;3.05;;;2.10;;
18893;SDS011;9579;49.488;8.226;2022-10-23T14:55:59;3.38;;;2.20;;
18893;SDS011;9579;49.488;8.226;2022-10-23T14:58:46;3.67;;;2.10;;
18893;SDS011;9579;49.488;8.226;2022-10-23T15:01:35;2.20;;;1.92;;
18893;SDS011;9579;49.488;8.226;2022-10-23T15:04:23;3.33;;;2.20;;
18893;SDS011;9579;49.488;8.226;2022-10-23T15:07:12;2.33;;;2.10;;
18893;SDS011;9579;49.488;8.226;2022-10-23T15:09:59;2.85;;;2.28;;
18893;SDS011;9579;49.488;8.226;2022-10-23T15:12:46;2.90;;;2.25;;
18893;SDS011;9579;49.488;8.226;2022-10-23T15:15:33;5.80;;;2.40;;
18893;SDS011;9579;49.488;8.226;2022-10-23T15:18:20;3.53;;;2.60;;
18893;SDS011;9579;49.488;8.226;2022-10-23T15:21:08;5.82;;;2.38;;
18893;SDS011;9579;49.488;8.226;2022-10-23T15:23:56;6.13;;;2.40;;
18893;SDS011;9579;49.488;8.226;2022-10-23T15:26:46;3.00;;;2.40;;
18893;SDS011;9579;49.488;8.226;2022-10-23T15:29:34;2.10;;;2.00;;
18893;SDS011;9579;49.488;8.226;2022-10-23T15:32:26;4.20;;;2.35;;
18893;SDS011;9579;49.488;8.226;2022-10-23T15:35:13;2.63;;;2.20;;
18893;SDS011;9579;49.488;8.226;2022-10-23T15:38:00;2.47;;;2.28;;
18893;SDS011;9579;49.488;8.226;2022-10-23T15:40:48;2.78;;;2.13;;
18893;SDS011;9579;49.488;8.226;2022-10-23T15:43:35;3.53;;;2.20;;
18893;SDS011;9579;49.488;8.226;2022-10-23T15:46:22;3.28;;;2.30;;
18893;SDS011;9579;49.488;8.226;2022-10-23T15:49:09;2.75;;;2.20;;
18893;SDS011;9579;49.488;8.226;2022-10-23T15:51:57;2.45;;;2.28;;
18893;SDS011;9579;49.488;8.226;2022-10-23T15:54:44;2.20;;;2.00;;
18893;SDS011;9579;49.488;8.226;2022-10-23T15:57:33;2.70;;;2.10;;
18893;SDS011;9579;49.488;8.226;2022-10-23T16:00:20;2.30;;;2.10;;
18893;SDS011;9579;49.488;8.226;2022-10-23T16:03:07;2.20;;;2.00;;
18893;SDS011;9579;49.488;8.226;2022-10-23T16:06:05;2.38;;;2.10;;
18893;SDS011;9579;49.488;8.226;2022-10-23T16:08:54;2.72;;;2.17;;
18893;SDS011;9579;49.488;8.226;2022-10-23T16:11:41;2.67;;;2.10;;
18893;SDS011;9579;49.488;8.226;2022-10-23T16:14:30;2.20;;;2.10;;
18893;SDS011;9579;49.488;8.226;2022-10-23T16:17:17;4.10;;;2.60;;
18893;SDS011;9579;49.488;8.226;2022-10-23T16:20:05;4.13;;;2.92;;
18893;SDS011;9579;49.488;8.226;2022-10-23T16:22:52;3.60;;;3.10;;
18893;SDS011;9579;49.488;8.226;2022-10-23T16:25:42;4.88;;;3.80;;
18893;SDS011;9579;49.488;8.226;2022-10-23T16:28:34;4.75;;;4.18;;
18893;SDS011;9579;49.488;8.226;2022-10-23T16:31:23;6.53;;;5.82;;
18893;SDS011;9579;49.488;8.226;2022-10-23T16:34:11;7.13;;;6.07;;
18893;SDS011;9579;49.488;8.226;2022-10-23T16:36:58;5.80;;;5.20;;
18893;SDS011;9579;49.488;8.226;2022-10-23T16:39:45;6.57;;;5.05;;
18893;SDS011;9579;49.488;8.226;2022-10-23T16:42:32;5.40;;;4.88;;
18893;SDS011;9579;49.488;8.226;2022-10-23T16:45:20;5.45;;;4.95;;
18893;SDS011;9579;49.488;8.226;2022-10-23T16:48:08;8.30;;;6.63;;
18893;SDS011;9579;49.488;8.226;2022-10-23T16:50:56;9.05;;;7.70;;
18893;SDS011;9579;49.488;8.226;2022-10-23T16:53:43;18.83;;;16.92;;
18893;SDS011;9579;49.488;8.226;2022-10-23T16:56:31;18.80;;;17.00;;
18893;SDS011;9579;49.488;8.226;2022-10-23T16:59:25;19.02;;;17.20;;
18893;SDS011;9579;49.488;8.226;2022-10-23T17:02:12;10.35;;;9.45;;
18893;SDS011;9579;49.488;8.226;2022-10-23T17:05:03;7.00;;;6.38;;
18893;SDS011;9579;49.488;8.226;2022-10-23T17:08:02;6.43;;;5.68;;
18893;SDS011;9579;49.488;8.226;2022-10-23T17:10:49;9.48;;;8.55;;
18893;SDS011;9579;49.488;8.226;2022-10-23T17:13:37;8.50;;;7.80;;
18893;SDS011;9579;49.488;8.226;2022-10-23T17:16:26;10.38;;;9.50;;
18893;SDS011;9579;49.488;8.226;2022-10-23T17:19:14;7.65;;;6.95;;
18893;SDS011;9579;49.488;8.226;2022-10-23T17:22:04;6.20;;;5.70;;
18893;SDS011;9579;49.488;8.226;2022-10-23T17:24:54;6.55;;;4.75;;
18893;SDS011;9579;49.488;8.226;2022-10-23T17:27:42;5.05;;;4.20;;
18893;SDS011;9579;49.488;8.226;2022-10-23T17:30:31;6.05;;;4.03;;
18893;SDS011;9579;49.488;8.226;2022-10-23T17:33:23;6.47;;;4.07;;
18893;SDS011;9579;49.488;8.226;2022-10-23T17:36:11;10.23;;;4.53;;
18893;SDS011;9579;49.488;8.226;2022-10-23T17:39:12;12.88;;;5.18;;
18893;SDS011;9579;49.488;8.226;2022-10-23T17:42:04;13.10;;;5.07;;
18893;SDS011;9579;49.488;8.226;2022-10-23T17:55:52;11.50;;;4.80;;
18893;SDS011;9579;49.488;8.226;2022-10-23T17:58:43;8.80;;;4.88;;
18893;SDS011;9579;49.488;8.226;2022-10-23T18:01:31;12.02;;;4.85;;
18893;SDS011;9579;49.488;8.226;2022-10-23T18:04:35;8.73;;;4.50;;
18893;SDS011;9579;49.488;8.226;2022-10-23T18:07:37;13.35;;;4.93;;
18893;SDS011;9579;49.488;8.226;2022-10-23T18:14:34;13.05;;;5.22;;
18893;SDS011;9579;49.488;8.226;2022-10-23T18:20:52;7.45;;;4.40;;
18893;SDS011;9579;49.488;8.226;2022-10-23T18:23:50;8.57;;;4.53;;
18893;SDS011;9579;49.488;8.226;2022-10-23T18:26:39;11.05;;;8.60;;
18893;SDS011;9579;49.488;8.226;2022-10-23T18:29:28;8.27;;;5.05;;
18893;SDS011;9579;49.488;8.226;2022-10-23T18:32:16;8.50;;;5.18;;
18893;SDS011;9579;49.488;8.226;2022-10-23T18:38:08;8.25;;;4.55;;
18893;SDS011;9579;49.488;8.226;2022-10-23T18:41:04;9.45;;;4.53;;
18893;SDS011;9579;49.488;8.226;2022-10-23T18:43:55;8.20;;;3.92;;
18893;SDS011;9579;49.488;8.226;2022-10-23T18:47:12;8.25;;;4.25;;
18893;SDS011;9579;49.488;8.226;2022-10-23T18:49:59;9.52;;;8.50;;
18893;SDS011;9579;49.488;8.226;2022-10-23T18:52:47;9.70;;;6.43;;
18893;SDS011;9579;49.488;8.226;2022-10-23T18:55:34;9.88;;;6.25;;
18893;SDS011;9579;49.488;8.226;2022-10-23T18:58:30;8.85;;;5.55;;
18893;SDS011;9579;49.488;8.226;2022-10-23T19:01:18;6.93;;;4.45;;
18893;SDS011;9579;49.488;8.226;2022-10-23T19:04:08;8.65;;;4.50;;
18893;SDS011;9579;49.488;8.226;2022-10-23T19:07:08;8.77;;;4.53;;
18893;SDS011;9579;49.488;8.226;2022-10-23T19:10:03;12.07;;;4.22;;
18893;SDS011;9579;49.488;8.226;2022-10-23T19:13:35;7.25;;;3.70;;
18893;SDS011;9579;49.488;8.226;2022-10-23T19:16:41;9.05;;;4.45;;
18893;SDS011;9579;49.488;8.226;2022-10-23T19:23:03;8.90;;;4.40;;
18893;SDS011;9579;49.488;8.226;2022-10-23T19:25:54;8.13;;;4.45;;
18893;SDS011;9579;49.488;8.226;2022-10-23T19:28:43;8.32;;;4.63;;
18893;SDS011;9579;49.488;8.226;2022-10-23T19:31:32;9.77;;;4.78;;
18893;SDS011;9579;49.488;8.226;2022-10-23T19:34:20;12.02;;;4.38;;
18893;SDS011;9579;49.488;8.226;2022-10-23T19:37:13;7.68;;;4.95;;
18893;SDS011;9579;49.488;8.226;2022-10-23T19:40:01;6.28;;;4.22;;
18893;SDS011;9579;49.488;8.226;2022-10-23T19:42:51;7.05;;;4.57;;
18893;SDS011;9579;49.488;8.226;2022-10-23T19:45:46;10.35;;;8.80;;
18893;SDS011;9579;49.488;8.226;2022-10-23T19:48:37;6.35;;;5.00;;
18893;SDS011;9579;49.488;8.226;2022-10-23T19:51:28;6.80;;;5.28;;
18893;SDS011;9579;49.488;8.226;2022-10-23T19:54:18;8.77;;;4.70;;
18893;SDS011;9579;49.488;8.226;2022-10-23T20:11:04;7.82;;;4.28;;
18893;SDS011;9579;49.488;8.226;2022-10-23T20:18:03;6.40;;;4.47;;
18893;SDS011;9579;49.488;8.226;2022-10-23T20:25:27;5.35;;;4.22;;
18893;SDS011;9579;49.488;8.226;2022-10-23T20:32:16;7.63;;;4.57;;
18893;SDS011;9579;49.488;8.226;2022-10-23T20:39:44;5.93;;;4.22;;
18893;SDS011;9579;49.488;8.226;2022-10-23T21:00:40;7.00;;;4.47;;
18893;SDS011;9579;49.488;8.226;2022-10-23T21:21:15;7.40;;;4.53;;
18893;SDS011;9579;49.488;8.226;2022-10-23T22:02:58;8.05;;;4.07;;
18893;SDS011;9579;49.488;8.226;2022-10-23T22:05:49;6.72;;;4.30;;
18893;SDS011;9579;49.488;8.226;2022-10-23T22:09:18;7.97;;;4.35;;
18893;SDS011;9579;49.488;8.226;2022-10-23T22:12:13;8.00;;;4.20;;
18893;SDS011;9579;49.488;8.226;2022-10-23T22:15:43;8.27;;;4.32;;
18893;SDS011;9579;49.488;8.226;2022-10-23T22:18:38;7.85;;;4.40;;
18893;SDS011;9579;49.488;8.226;2022-10-23T22:21:40;7.65;;;3.95;;
18893;SDS011;9579;49.488;8.226;2022-10-23T22:24:36;6.65;;;3.67;;
18893;SDS011;9579;49.488;8.226;2022-10-23T22:59:33;6.88;;;4.78;;
